Time;durP1;ratioP1;P1;durP2;ratioP2;P2;SDS_P1;SDS_P2;PMS_P1;PMS_P2;Temp;Humidity;BMP_temperature;BMP_pressure;BME280_temperature;BME280_humidity;BME280_pressure;Samples;Min_cycle;Max_cycle;Signal;HPM_P1;HPM_P2
2023/04/27 00:02:22;;;;;;;12.48;4.32;;;0.20;74.40;;;;;;5074552;28;20044;-87
2023/04/27 00:04:48;;;;;;;9.77;4.65;;;0.30;72.00;;;;;;5047619;28;20048;-87
2023/04/27 00:07:14;;;;;;;9.18;4.35;;;0.50;97.20;;;;;;5058775;28;20060;-88
2023/04/27 00:09:40;;;;;;;8.80;4.50;;;0.30;99.90;;;;;;5073587;28;20119;-87
2023/04/27 00:12:06;;;;;;;10.80;4.43;;;0.20;99.90;;;;;;5056352;28;20052;-89
2023/04/27 00:14:31;;;;;;;7.30;4.07;;;0.10;99.90;;;;;;5057582;28;20051;-88
2023/04/27 00:17:00;;;;;;;7.97;3.47;;;0.10;99.90;;;;;;5064206;28;20048;-87
2023/04/27 00:19:29;;;;;;;11.80;4.40;;;0.20;99.90;;;;;;5057872;28;20475;-91
2023/04/27 00:21:56;;;;;;;10.25;4.25;;;0.30;99.90;;;;;;5049548;28;20052;-88
2023/04/27 00:24:25;;;;;;;7.95;4.25;;;0.00;99.90;;;;;;5038476;28;20079;-87
2023/04/27 00:26:51;;;;;;;9.85;4.30;;;0.20;99.90;;;;;;5057818;28;20534;-88
2023/04/27 00:29:19;;;;;;;7.63;4.22;;;0.00;99.90;;;;;;5051144;28;20073;-87
2023/04/27 00:31:44;;;;;;;10.80;3.85;;;0.20;99.90;;;;;;5057002;28;20102;-87
2023/04/27 00:34:10;;;;;;;8.98;4.40;;;0.20;99.90;;;;;;5056804;28;20436;-88
2023/04/27 00:36:36;;;;;;;12.25;4.22;;;0.30;99.90;;;;;;5056228;28;20538;-87
2023/04/27 00:39:03;;;;;;;8.40;4.30;;;0.10;99.90;;;;;;5050265;28;20066;-87
2023/04/27 00:41:29;;;;;;;10.32;4.80;;;0.30;99.90;;;;;;5054281;28;20124;-89
2023/04/27 00:43:57;;;;;;;10.30;4.45;;;0.70;99.90;;;;;;5073686;28;20164;-89
2023/04/27 00:46:23;;;;;;;19.23;4.93;;;0.80;99.90;;;;;;5051712;28;20044;-89
2023/04/27 00:48:52;;;;;;;9.25;4.72;;;0.40;99.90;;;;;;5058111;28;20055;-90
2023/04/27 00:51:21;;;;;;;8.02;4.60;;;1.00;99.90;;;;;;5059263;28;20040;-89
2023/04/27 00:53:52;;;;;;;14.65;4.75;;;0.90;99.90;;;;;;5056971;28;20055;-89
2023/04/27 00:56:30;;;;;;;;;;;;;;;;;;;;;
2023/04/27 00:58:59;;;;;;;12.68;4.63;;;1.10;99.90;;;;;;5098788;28;20048;-88
2023/04/27 01:01:32;;;;;;;8.70;4.45;;;1.10;99.90;;;;;;5075509;28;20135;-88
2023/04/27 01:04:00;;;;;;;9.55;4.30;;;1.50;99.90;;;;;;5059843;28;20115;-88
2023/04/27 01:06:29;;;;;;;12.30;5.13;;;1.60;99.90;;;;;;5072821;28;20043;-88
2023/04/27 01:08:58;;;;;;;9.70;4.70;;;1.30;99.90;;;;;;5056431;28;20058;-89
2023/04/27 01:11:24;;;;;;;10.68;4.30;;;1.60;99.90;;;;;;5056492;28;20074;-89
2023/04/27 01:14:02;;;;;;;9.05;4.45;;;1.50;99.90;;;;;;5056184;28;20508;-90
2023/04/27 01:16:36;;;;;;;11.52;4.47;;;1.70;99.90;;;;;;5054224;28;20044;-89
2023/04/27 01:19:09;;;;;;;;;;;1.60;99.90;;;;;;5043782;28;20044;-90
2023/04/27 01:21:38;;;;;;;9.70;4.60;;;1.70;99.90;;;;;;5057638;28;19920;-90
2023/04/27 01:24:16;;;;;;;8.65;4.72;;;1.60;99.90;;;;;;5032911;28;20055;-89
2023/04/27 01:26:41;;;;;;;10.73;4.57;;;1.60;99.90;;;;;;5066148;28;20109;-88
2023/04/27 01:29:09;;;;;;;7.35;4.55;;;1.60;99.90;;;;;;5049665;28;20048;-90
2023/04/27 01:31:43;;;;;;;7.43;4.28;;;1.60;99.90;;;;;;5047934;28;20044;-88
2023/04/27 01:34:09;;;;;;;10.50;4.50;;;1.50;99.90;;;;;;5075718;28;20055;-88
2023/04/27 01:36:38;;;;;;;12.40;4.55;;;1.40;99.90;;;;;;5075085;28;20050;-87
2023/04/27 01:39:07;;;;;;;8.88;4.50;;;1.40;99.90;;;;;;5063341;28;20052;-87
2023/04/27 01:41:34;;;;;;;9.73;4.72;;;1.50;99.90;;;;;;5086722;28;20083;-87
2023/04/27 01:44:03;;;;;;;10.70;4.40;;;1.40;99.90;;;;;;5054187;28;20071;-88
2023/04/27 01:46:29;;;;;;;8.13;3.72;;;1.30;99.90;;;;;;5033782;28;20049;-89
2023/04/27 01:48:57;;;;;;;11.05;4.53;;;1.10;99.90;;;;;;5065390;28;20048;-88
2023/04/27 01:51:23;;;;;;;7.55;3.80;;;1.00;99.90;;;;;;5059777;28;20547;-87
2023/04/27 01:53:51;;;;;;;10.05;4.20;;;0.70;99.90;;;;;;5067254;28;20040;-88
2023/04/27 01:56:22;;;;;;;8.02;4.00;;;0.70;99.90;;;;;;5069166;28;20081;-87
2023/04/27 01:58:47;;;;;;;8.10;4.43;;;0.90;99.90;;;;;;5073801;28;20051;-87
2023/04/27 02:01:18;;;;;;;14.43;4.53;;;0.80;99.90;;;;;;5072503;28;20039;-88
2023/04/27 02:03:44;;;;;;;9.35;4.25;;;0.80;99.90;;;;;;5074206;28;20687;-89
2023/04/27 02:06:10;;;;;;;7.43;4.30;;;0.50;99.90;;;;;;5049566;28;20044;-86
2023/04/27 02:08:35;;;;;;;9.93;4.18;;;0.70;99.90;;;;;;5067411;28;20071;-87
2023/04/27 02:11:01;;;;;;;8.18;4.05;;;0.60;99.90;;;;;;5057731;28;20086;-88
2023/04/27 02:13:27;;;;;;;11.68;4.00;;;0.20;99.90;;;;;;5078805;28;20044;-87
2023/04/27 02:15:58;;;;;;;11.82;4.78;;;0.30;99.90;;;;;;5057064;28;20485;-86
2023/04/27 02:18:27;;;;;;;10.35;3.90;;;0.30;99.90;;;;;;5042181;28;20405;-87
2023/04/27 02:20:56;;;;;;;9.15;4.28;;;0.30;99.90;;;;;;5082205;28;20044;-86
2023/04/27 02:23:21;;;;;;;7.93;4.05;;;0.30;99.90;;;;;;5058301;28;20047;-86
2023/04/27 02:25:47;;;;;;;8.52;4.22;;;0.30;99.90;;;;;;5070719;28;20060;-89
2023/04/27 02:28:13;;;;;;;10.88;4.53;;;0.20;99.90;;;;;;5055631;28;20393;-87
2023/04/27 02:30:39;;;;;;;9.27;4.53;;;0.40;99.90;;;;;;5056261;28;20040;-88
2023/04/27 02:33:09;;;;;;;15.13;4.38;;;0.10;99.90;;;;;;5041245;28;20048;-88
2023/04/27 02:35:35;;;;;;;8.52;4.57;;;0.10;99.90;;;;;;5048708;28;20096;-88
2023/04/27 02:38:01;;;;;;;14.07;4.68;;;0.00;99.90;;;;;;5057406;28;20056;-88
2023/04/27 02:40:32;;;;;;;9.75;4.35;;;0.00;99.90;;;;;;5075412;28;20051;-88
2023/04/27 02:43:01;;;;;;;8.88;4.35;;;-0.10;99.90;;;;;;5050808;28;20050;-88
2023/04/27 02:45:28;;;;;;;11.25;4.85;;;0.20;99.90;;;;;;5051839;28;20055;-86
2023/04/27 02:47:57;;;;;;;11.95;4.65;;;0.20;99.90;;;;;;5073584;28;20043;-87
2023/04/27 02:50:23;;;;;;;13.93;4.97;;;-0.20;99.90;;;;;;5056348;28;20047;-87
2023/04/27 02:52:49;;;;;;;7.07;4.15;;;-0.10;99.90;;;;;;5057024;28;20047;-88
2023/04/27 02:55:20;;;;;;;9.45;4.45;;;-0.20;99.90;;;;;;5055007;28;20204;-88
2023/04/27 02:57:48;;;;;;;9.65;4.53;;;-0.30;99.90;;;;;;5054925;28;20409;-88
2023/04/27 03:00:15;;;;;;;11.70;4.72;;;0.00;99.90;;;;;;5082717;28;20052;-88
2023/04/27 03:02:43;;;;;;;12.18;5.32;;;-0.40;99.90;;;;;;5051869;28;20074;-88
2023/04/27 03:05:09;;;;;;;8.43;4.40;;;-0.10;99.90;;;;;;5066997;28;20647;-88
2023/04/27 03:07:35;;;;;;;9.48;4.28;;;-0.20;99.90;;;;;;5054649;28;20046;-88
2023/04/27 03:10:01;;;;;;;11.32;4.68;;;-0.40;99.90;;;;;;5056151;28;20044;-87
2023/04/27 03:12:29;;;;;;;9.50;4.68;;;-0.50;99.90;;;;;;5059777;28;20067;-87
2023/04/27 03:15:02;;;;;;;13.52;4.40;;;-0.40;99.90;;;;;;5052983;28;20130;-90
2023/04/27 03:17:31;;;;;;;9.02;4.65;;;-0.30;99.90;;;;;;5053929;28;20044;-88
2023/04/27 03:19:59;;;;;;;10.40;4.68;;;-0.40;99.90;;;;;;5076053;28;20106;-91
2023/04/27 03:22:28;;;;;;;7.72;4.38;;;-0.60;99.90;;;;;;5053430;28;20047;-88
2023/04/27 03:25:22;;;;;;;;;;;;;;;;;;;;;
2023/04/27 03:27:51;;;;;;;8.65;4.55;;;-0.70;99.90;;;;;;5074032;28;20040;-88
2023/04/27 03:30:28;;;;;;;10.18;4.18;;;-0.70;99.90;;;;;;5058227;28;20036;-87
2023/04/27 03:33:13;;;;;;;8.38;4.30;;;-0.80;99.90;;;;;;5073418;28;20082;-89
2023/04/27 03:35:38;;;;;;;9.52;4.50;;;-0.70;99.90;;;;;;5047755;28;20040;-86
2023/04/27 03:38:23;;;;;;;8.98;4.40;;;-0.50;99.90;;;;;;5062006;28;20058;-87
2023/04/27 03:40:49;;;;;;;10.27;4.30;;;-0.80;99.90;;;;;;5056945;28;20101;-87
2023/04/27 03:43:31;;;;;;;;;;;;;;;;;;;;;
2023/04/27 03:45:59;;;;;;;9.30;3.50;;;-0.60;99.90;;;;;;5067011;28;20048;-88
2023/04/27 03:48:30;;;;;;;10.75;4.60;;;-0.90;99.90;;;;;;5039203;28;20052;-88
2023/04/27 03:51:14;;;;;;;7.93;3.72;;;-0.90;99.90;;;;;;5072638;28;20047;-87
2023/04/27 03:53:42;;;;;;;8.88;4.28;;;-0.70;99.90;;;;;;5072886;28;20542;-88
2023/04/27 03:56:11;;;;;;;9.75;3.58;;;-1.20;99.90;;;;;;5055610;28;20117;-90
2023/04/27 03:58:42;;;;;;;8.63;4.00;;;-1.00;99.90;;;;;;5056159;28;20461;-87
2023/04/27 04:01:10;;;;;;;8.90;4.20;;;-0.90;99.90;;;;;;5068011;28;20044;-87
2023/04/27 04:03:39;;;;;;;8.35;4.10;;;-0.70;99.90;;;;;;5056728;28;20072;-87
2023/04/27 04:06:20;;;;;;;9.23;4.43;;;-0.80;99.90;;;;;;5068053;28;20060;-88
2023/04/27 04:08:58;;;;;;;8.05;3.50;;;-1.00;99.90;;;;;;5057911;28;20485;-87
2023/04/27 04:11:29;;;;;;;10.00;3.53;;;-1.00;99.90;;;;;;5075484;28;20044;-87
2023/04/27 04:13:59;;;;;;;6.35;3.63;;;-0.70;99.90;;;;;;5071710;28;20055;-87
2023/04/27 04:16:28;;;;;;;10.98;3.92;;;-0.60;99.90;;;;;;5075923;28;20051;-87
2023/04/27 04:19:22;;;;;;;7.22;3.80;;;-0.70;99.90;;;;;;5076603;28;20051;-87
2023/04/27 04:22:00;;;;;;;8.60;3.58;;;-0.90;99.90;;;;;;5074252;28;20073;-88
2023/04/27 04:24:44;;;;;;;9.38;3.95;;;-1.10;99.90;;;;;;5062324;28;20075;-88
2023/04/27 04:27:20;;;;;;;8.40;4.03;;;-0.90;99.90;;;;;;5041108;28;20468;-88
2023/04/27 04:29:48;;;;;;;10.68;4.45;;;-0.80;99.90;;;;;;5054098;28;20058;-88
2023/04/27 04:32:21;;;;;;;8.10;4.07;;;-1.10;99.90;;;;;;5059260;28;20048;-88
2023/04/27 04:34:54;;;;;;;10.80;4.43;;;-0.90;99.90;;;;;;5075042;28;20048;-88
2023/04/27 04:37:23;;;;;;;7.47;4.10;;;-0.90;99.90;;;;;;5076122;28;20114;-88
2023/04/27 04:40:05;;;;;;;;;;;;;;;;;;;;;
2023/04/27 04:42:40;;;;;;;9.90;4.40;;;-0.70;99.90;;;;;;5064373;28;20105;-91
2023/04/27 04:45:12;;;;;;;9.32;4.63;;;-0.70;99.90;;;;;;5072811;28;20081;-89
2023/04/27 04:47:39;;;;;;;8.38;4.15;;;-0.90;99.90;;;;;;5074381;28;20055;-88
2023/04/27 04:50:11;;;;;;;10.13;4.20;;;-0.80;99.90;;;;;;5056626;28;20105;-91
2023/04/27 04:52:50;;;;;;;9.23;3.85;;;-0.80;99.90;;;;;;5058716;28;20040;-88
2023/04/27 04:55:32;;;;;;;;;;;;;;;;;;;;;
2023/04/27 04:58:31;;;;;;;12.23;4.38;;;-0.80;99.90;;;;;;5065663;28;20052;-88
2023/04/27 05:00:59;;;;;;;8.10;4.03;;;-0.50;99.90;;;;;;5055435;28;20125;-88
2023/04/27 05:07:10;;;;;;;11.15;4.75;;;-0.50;1.00;;;;;;5067530;28;20106;-87
2023/04/27 05:09:40;;;;;;;7.95;4.35;;;-0.10;1.00;;;;;;5057828;28;20063;-88
2023/04/27 05:12:09;;;;;;;9.77;4.28;;;-0.30;1.00;;;;;;5072107;28;20050;-86
2023/04/27 05:14:42;;;;;;;11.73;5.18;;;-0.20;1.00;;;;;;5075058;28;20044;-89
2023/04/27 05:17:44;;;;;;;;;;;;;;;;;;;;;
2023/04/27 05:20:12;;;;;;;;;;;;;;;;;;;;;
2023/04/27 05:23:02;;;;;;;13.43;5.75;;;0.00;1.00;;;;;;5076562;28;20052;-90
2023/04/27 05:29:29;;;;;;;;;;;;;;;;;;;;;
2023/04/27 05:32:09;;;;;;;13.10;5.40;;;0.60;1.00;;;;;;5032878;28;20068;-90
2023/04/27 05:38:02;;;;;;;11.15;5.30;;;0.70;1.00;;;;;;4999289;28;20120;-89
2023/04/27 05:40:48;;;;;;;10.82;5.35;;;0.80;1.00;;;;;;4996715;28;20041;-91
2023/04/27 05:43:16;;;;;;;13.47;5.93;;;1.10;1.00;;;;;;5037846;28;20578;-90
2023/04/27 05:45:42;;;;;;;15.23;6.22;;;1.30;1.00;;;;;;5044747;28;20264;-88
2023/04/27 05:48:18;;;;;;;9.60;5.53;;;1.60;1.00;;;;;;5086058;28;20945;-88
2023/04/27 05:50:49;;;;;;;10.88;6.40;;;1.90;1.00;;;;;;5060922;28;20040;-88
2023/04/27 05:53:20;;;;;;;12.95;6.80;;;2.40;1.00;;;;;;5069624;28;20556;-88
2023/04/27 05:55:57;;;;;;;13.23;5.97;;;2.40;1.00;;;;;;5075109;28;20091;-88
2023/04/27 05:58:26;;;;;;;15.05;6.57;;;2.80;1.00;;;;;;5039410;28;20048;-87
2023/04/27 06:01:23;;;;;;;;;;;;;;;;;;;;;
2023/04/27 06:04:20;;;;;;;13.75;5.57;;;3.00;1.00;;;;;;5075472;28;20815;-93
2023/04/27 06:07:16;;;;;;;11.18;5.80;;;3.00;1.00;;;;;;4931560;28;20065;-90
2023/04/27 06:09:42;;;;;;;10.35;5.43;;;3.30;1.00;;;;;;5021653;28;20045;-89
2023/04/27 06:12:24;;;;;;;9.73;5.40;;;3.50;1.00;;;;;;5049846;28;20067;-90
2023/04/27 06:14:58;;;;;;;11.85;5.03;;;3.70;1.00;;;;;;5040813;28;20184;-93
2023/04/27 06:17:34;;;;;;;;;;;;;;;;;;;;;
2023/04/27 06:20:00;;;;;;;;;;;4.00;1.00;;;;;;5047939;28;20206;-87
2023/04/27 06:22:27;;;;;;;6.73;4.57;;;4.20;99.90;;;;;;5033163;28;20393;-86
2023/04/27 06:24:55;;;;;;;7.78;4.88;;;4.40;99.90;;;;;;5051021;28;20307;-87
2023/04/27 06:27:21;;;;;;;6.97;4.53;;;4.60;1.00;;;;;;5036488;28;20158;-88
2023/04/27 06:29:46;;;;;;;10.38;4.47;;;4.70;1.00;;;;;;5011965;28;20570;-86
2023/04/27 06:32:15;;;;;;;7.90;4.13;;;4.90;99.90;;;;;;5024222;28;20041;-86
2023/04/27 06:34:41;;;;;;;6.18;4.03;;;5.00;99.90;;;;;;5032793;28;20387;-87
2023/04/27 06:37:18;;;;;;;6.65;3.75;;;5.10;99.90;;;;;;5038793;28;20479;-88
2023/04/27 06:39:54;;;;;;;7.50;3.35;;;5.20;99.90;;;;;;5031043;28;20795;-89
2023/04/27 06:42:30;;;;;;;5.05;2.80;;;5.20;99.90;;;;;;5030602;28;20048;-86
2023/04/27 06:45:09;;;;;;;5.68;3.15;;;5.30;99.90;;;;;;5058545;28;20064;-90
2023/04/27 06:47:34;;;;;;;4.63;3.10;;;5.40;99.90;;;;;;5052800;28;20044;-85
2023/04/27 06:50:04;;;;;;;6.72;2.83;;;5.40;99.90;;;;;;5031792;28;20060;-89
2023/04/27 06:52:32;;;;;;;5.63;2.60;;;5.50;82.20;;;;;;5050399;28;20044;-94
2023/04/27 06:54:58;;;;;;;6.18;2.35;;;5.50;99.90;;;;;;5033304;28;20363;-91
2023/04/27 06:57:33;;;;;;;6.88;2.80;;;5.70;99.90;;;;;;5049597;28;20045;-87
2023/04/27 07:00:02;;;;;;;5.13;2.58;;;5.80;1.00;;;;;;5034365;28;20044;-87
2023/04/27 07:02:27;;;;;;;5.25;2.40;;;5.80;1.00;;;;;;5026984;28;20573;-86
2023/04/27 07:04:56;;;;;;;6.75;2.65;;;6.00;99.90;;;;;;5045625;28;20128;-85
2023/04/27 07:07:21;;;;;;;5.20;2.22;;;6.10;99.90;;;;;;5033457;28;20060;-83
2023/04/27 07:09:47;;;;;;;4.30;2.63;;;6.30;99.90;;;;;;5028725;28;20234;-83
2023/04/27 07:12:13;;;;;;;3.80;2.40;;;6.40;99.90;;;;;;5049349;28;20037;-85
2023/04/27 07:14:38;;;;;;;6.63;2.38;;;6.50;99.90;;;;;;5061223;28;20123;-82
2023/04/27 07:17:04;;;;;;;4.20;2.25;;;6.60;99.90;;;;;;5044707;28;20713;-84
2023/04/27 07:19:30;;;;;;;3.67;2.75;;;6.70;99.90;;;;;;5020991;28;20575;-87
2023/04/27 07:21:55;;;;;;;4.60;2.40;;;6.90;99.90;;;;;;5041330;28;20063;-86
2023/04/27 07:24:27;;;;;;;3.42;2.50;;;7.00;99.90;;;;;;5046641;28;20392;-85
2023/04/27 07:26:53;;;;;;;6.43;2.58;;;7.10;99.90;;;;;;5022973;28;20060;-85
2023/04/27 07:29:21;;;;;;;3.15;1.70;;;7.20;99.90;;;;;;5047377;28;20090;-87
2023/04/27 07:31:53;;;;;;;3.55;2.05;;;7.20;99.90;;;;;;5044104;28;20048;-90
2023/04/27 07:34:27;;;;;;;6.65;2.00;;;7.30;99.90;;;;;;5063189;28;20040;-89
2023/04/27 07:37:00;;;;;;;2.65;1.77;;;7.40;99.90;;;;;;5056067;28;20156;-89
2023/04/27 07:39:29;;;;;;;4.38;2.47;;;7.50;99.90;;;;;;5031307;28;20048;-88
2023/04/27 07:41:55;;;;;;;4.45;1.90;;;7.50;99.90;;;;;;5024020;28;20135;-89
2023/04/27 07:44:21;;;;;;;4.15;1.98;;;7.60;99.90;;;;;;5046393;28;20040;-85
2023/04/27 07:46:48;;;;;;;5.22;2.20;;;7.60;99.90;;;;;;5047205;28;20048;-86
2023/04/27 07:49:14;;;;;;;4.05;1.83;;;7.70;99.90;;;;;;5052044;28;20052;-86
2023/04/27 07:51:43;;;;;;;3.13;1.90;;;7.80;32.10;;;;;;5035089;28;20052;-88
2023/04/27 07:54:08;;;;;;;3.35;2.30;;;7.90;91.00;;;;;;5030808;28;20386;-87
2023/04/27 07:56:34;;;;;;;3.22;1.90;;;7.90;44.20;;;;;;5059983;28;20078;-87
2023/04/27 07:59:00;;;;;;;6.85;2.30;;;8.00;84.60;;;;;;5050813;28;20044;-87
2023/04/27 08:01:26;;;;;;;2.55;1.90;;;8.00;81.00;;;;;;5044660;28;20036;-85
2023/04/27 08:03:52;;;;;;;5.43;2.28;;;8.00;89.10;;;;;;5042807;28;20383;-86
2023/04/27 08:06:18;;;;;;;2.95;2.03;;;8.10;41.50;;;;;;5069953;28;20067;-88
2023/04/27 08:08:44;;;;;;;5.70;1.80;;;8.10;46.50;;;;;;5049643;28;20056;-85
2023/04/27 08:11:14;;;;;;;4.00;1.90;;;8.20;47.20;;;;;;5051066;28;20040;-86
2023/04/27 08:13:40;;;;;;;4.05;1.90;;;8.40;1.00;;;;;;5067946;28;20059;-86
2023/04/27 08:16:06;;;;;;;5.43;1.60;;;8.50;1.00;;;;;;5043344;28;20477;-85
2023/04/27 08:18:31;;;;;;;3.45;1.58;;;8.60;1.00;;;;;;5060609;28;20032;-90
2023/04/27 08:20:57;;;;;;;4.25;1.70;;;8.80;1.00;;;;;;5045131;28;20462;-90
2023/04/27 08:23:27;;;;;;;2.15;1.60;;;8.90;1.00;;;;;;5055424;28;20125;-88
2023/04/27 08:25:52;;;;;;;4.53;2.03;;;9.00;1.00;;;;;;5042413;28;20079;-90
2023/04/27 08:28:18;;;;;;;2.70;1.48;;;9.20;1.00;;;;;;5052070;28;20147;-87
2023/04/27 08:30:44;;;;;;;2.90;1.80;;;9.30;1.00;;;;;;5036924;28;20093;-88
2023/04/27 08:33:10;;;;;;;2.30;1.45;;;9.40;1.00;;;;;;5044187;28;20448;-87
2023/04/27 08:35:36;;;;;;;2.58;1.75;;;9.50;1.00;;;;;;5062639;28;20049;-85
2023/04/27 08:38:02;;;;;;;5.57;2.00;;;9.70;1.00;;;;;;5035902;28;20049;-87
2023/04/27 08:40:28;;;;;;;4.30;3.03;;;9.90;1.00;;;;;;5062454;28;20064;-85
2023/04/27 08:42:59;;;;;;;3.65;2.17;;;10.10;1.00;;;;;;5040950;28;20054;-86
2023/04/27 08:45:26;;;;;;;4.78;1.90;;;10.30;1.00;;;;;;5060134;28;20508;-83
2023/04/27 08:47:52;;;;;;;7.13;2.30;;;10.40;1.00;;;;;;5009186;28;20225;-83
2023/04/27 08:50:19;;;;;;;4.57;2.30;;;10.50;1.00;;;;;;5061687;28;20599;-87
2023/04/27 08:52:48;;;;;;;2.67;2.00;;;10.60;1.00;;;;;;5041324;28;20127;-86
2023/04/27 08:55:13;;;;;;;3.80;1.90;;;10.80;1.00;;;;;;5043154;28;20075;-83
2023/04/27 08:57:39;;;;;;;4.28;2.17;;;11.30;1.00;;;;;;5063388;28;20044;-84
2023/04/27 09:00:12;;;;;;;6.47;2.97;;;12.30;1.00;;;;;;5057778;28;20452;-84
2023/04/27 09:02:47;;;;;;;2.63;2.00;;;13.10;1.00;;;;;;5067203;28;20048;-85
2023/04/27 09:05:21;;;;;;;5.13;2.47;;;13.90;1.00;;;;;;5068846;28;20469;-83
2023/04/27 09:07:55;;;;;;;3.30;2.30;;;14.60;1.00;;;;;;5060768;28;20113;-86
2023/04/27 09:10:22;;;;;;;4.55;2.80;;;15.10;1.00;;;;;;5065674;28;20047;-87
2023/04/27 09:12:58;;;;;;;4.93;2.30;;;15.90;1.00;;;;;;5085119;28;20299;-83
2023/04/27 09:15:25;;;;;;;4.38;2.55;;;16.50;1.00;;;;;;5069979;28;20051;-83
2023/04/27 09:17:55;;;;;;;3.65;2.15;;;16.90;1.00;;;;;;5093753;28;20127;-86
2023/04/27 09:20:21;;;;;;;4.72;2.22;;;17.30;1.00;;;;;;5056625;28;20075;-83
2023/04/27 09:22:54;;;;;;;4.32;2.40;;;17.70;1.00;;;;;;5089685;28;20047;-84
2023/04/27 09:25:28;;;;;;;4.57;2.85;;;17.70;1.00;;;;;;5056945;28;20101;-83
2023/04/27 09:27:55;;;;;;;3.70;2.40;;;17.40;1.00;;;;;;5055869;28;20055;-83
2023/04/27 09:30:21;;;;;;;4.72;2.47;;;17.60;1.00;;;;;;5069936;28;20097;-82
2023/04/27 09:32:58;;;;;;;5.10;2.85;;;17.70;1.00;;;;;;5059210;28;20039;-85
2023/04/27 09:35:26;;;;;;;4.57;2.30;;;17.30;1.00;;;;;;5072737;28;20134;-85
2023/04/27 09:37:53;;;;;;;5.20;2.15;;;17.00;1.00;;;;;;5073505;28;20989;-86
2023/04/27 09:40:22;;;;;;;4.38;2.20;;;17.40;1.00;;;;;;5056736;28;20044;-83
2023/04/27 09:42:49;;;;;;;3.30;2.22;;;17.80;1.00;;;;;;5090898;28;20043;-83
2023/04/27 09:45:16;;;;;;;5.18;2.78;;;18.00;1.00;;;;;;5043177;28;20040;-86
2023/04/27 09:47:42;;;;;;;4.30;2.60;;;18.20;1.00;;;;;;5066470;28;20047;-82
2023/04/27 09:50:11;;;;;;;7.43;3.10;;;18.20;1.00;;;;;;5054613;28;20079;-90
2023/04/27 09:52:36;;;;;;;5.15;2.78;;;17.30;1.00;;;;;;5055736;28;20128;-84
2023/04/27 09:55:04;;;;;;;6.10;2.88;;;17.00;1.00;;;;;;5050367;28;20178;-84
2023/04/27 09:58:00;;;;;;;7.53;3.35;;;17.30;1.00;;;;;;5083990;28;20048;-83
2023/04/27 10:01:00;;;;;;;7.07;3.70;;;17.20;1.00;;;;;;5069546;28;20048;-82
2023/04/27 10:03:57;;;;;;;9.43;3.90;;;16.50;1.00;;;;;;5077170;28;20400;-82
2023/04/27 10:06:50;;;;;;;4.28;2.95;;;16.80;1.00;;;;;;4974702;28;20056;-83
2023/04/27 10:09:22;;;;;;;4.00;2.50;;;17.20;1.00;;;;;;5076854;28;20036;-83
2023/04/27 10:11:49;;;;;;;3.80;2.88;;;17.40;1.00;;;;;;5074852;28;20452;-83
2023/04/27 10:14:20;;;;;;;6.15;2.50;;;17.90;1.00;;;;;;5058959;28;20040;-83
2023/04/27 10:16:54;;;;;;;9.15;3.40;;;18.20;1.00;;;;;;5075699;28;20040;-82
2023/04/27 10:19:22;;;;;;;5.53;2.75;;;17.30;1.00;;;;;;5069287;28;20060;-83
2023/04/27 10:22:01;;;;;;;4.15;2.80;;;17.30;1.00;;;;;;5056050;28;20123;-85
2023/04/27 10:24:41;;;;;;;6.93;3.47;;;18.00;1.00;;;;;;5053355;28;20439;-83
2023/04/27 10:27:09;;;;;;;4.65;2.92;;;18.40;1.00;;;;;;5063332;28;20438;-83
2023/04/27 10:29:43;;;;;;;5.80;3.50;;;18.20;1.00;;;;;;5057434;28;20036;-82
2023/04/27 10:32:22;;;;;;;8.85;3.30;;;17.40;1.00;;;;;;5059349;28;20036;-86
2023/04/27 10:35:02;;;;;;;6.05;3.58;;;17.20;1.00;;;;;;5075857;28;20500;-82
2023/04/27 10:37:40;;;;;;;6.53;3.20;;;17.30;1.00;;;;;;5067656;28;20044;-82
2023/04/27 10:40:14;;;;;;;6.70;3.63;;;17.10;1.00;;;;;;5057542;28;20070;-82
2023/04/27 10:42:40;;;;;;;7.63;3.55;;;17.50;1.00;;;;;;5058128;28;20048;-83
2023/04/27 10:45:07;;;;;;;5.32;3.40;;;18.30;1.00;;;;;;5054169;28;20048;-83
2023/04/27 10:47:43;;;;;;;8.05;3.33;;;18.40;1.00;;;;;;5060927;28;20056;-82
2023/04/27 10:50:12;;;;;;;5.15;3.00;;;17.50;1.00;;;;;;5075142;28;20044;-83
2023/04/27 10:52:47;;;;;;;4.47;2.90;;;17.10;1.00;;;;;;5052611;28;20124;-88
2023/04/27 10:55:19;;;;;;;5.13;2.85;;;16.40;1.00;;;;;;5080766;28;20046;-82
2023/04/27 10:58:03;;;;;;;6.60;4.78;;;16.50;1.00;;;;;;5061939;28;20409;-84
2023/04/27 11:00:30;;;;;;;7.97;3.38;;;17.00;1.00;;;;;;5074085;28;20039;-83
2023/04/27 11:03:09;;;;;;;5.10;2.80;;;17.00;1.00;;;;;;5072305;28;20484;-82
2023/04/27 11:05:35;;;;;;;6.07;3.20;;;16.70;1.00;;;;;;5068939;28;20127;-84
2023/04/27 11:08:15;;;;;;;5.10;2.75;;;16.40;1.00;;;;;;5045304;28;20078;-84
2023/04/27 11:10:50;;;;;;;5.78;2.80;;;17.00;1.00;;;;;;5066383;28;20044;-81
2023/04/27 11:13:20;;;;;;;4.32;2.90;;;17.30;1.00;;;;;;5041102;28;20048;-82
2023/04/27 11:15:48;;;;;;;6.00;2.67;;;17.80;1.00;;;;;;5063619;28;20051;-83
2023/04/27 11:18:16;;;;;;;5.63;3.17;;;18.30;1.00;;;;;;5056959;28;20044;-83
2023/04/27 11:20:43;;;;;;;4.60;3.05;;;18.20;1.00;;;;;;5074981;28;20091;-83
2023/04/27 11:23:11;;;;;;;6.80;3.03;;;18.30;1.00;;;;;;5068097;28;20044;-85
2023/04/27 11:25:37;;;;;;;4.72;2.67;;;18.40;1.00;;;;;;5056542;28;20048;-84
2023/04/27 11:28:03;;;;;;;4.47;2.45;;;18.70;1.00;;;;;;5056550;28;20102;-87
2023/04/27 11:30:30;;;;;;;6.15;2.80;;;19.10;1.00;;;;;;5048081;28;20098;-84
2023/04/27 11:32:56;;;;;;;4.78;3.60;;;19.50;1.00;;;;;;5031771;28;20051;-82
2023/04/27 11:35:33;;;;;;;5.18;3.05;;;19.40;1.00;;;;;;5073014;28;20497;-83
2023/04/27 11:37:59;;;;;;;7.63;2.80;;;19.70;1.00;;;;;;5073605;28;20044;-83
2023/04/27 11:40:26;;;;;;;7.20;3.08;;;19.90;1.00;;;;;;5065375;28;20055;-83
2023/04/27 11:42:58;;;;;;;5.93;3.17;;;19.40;1.00;;;;;;5057026;28;20071;-83
2023/04/27 11:45:27;;;;;;;6.20;3.08;;;18.90;1.00;;;;;;5055942;28;20066;-84
2023/04/27 11:47:59;;;;;;;4.22;2.80;;;19.00;1.00;;;;;;5053987;28;20393;-83
2023/04/27 11:50:26;;;;;;;4.72;2.42;;;19.10;1.00;;;;;;5056008;28;20047;-83
2023/04/27 11:52:52;;;;;;;6.65;3.00;;;19.20;1.00;;;;;;5034568;28;20067;-83
2023/04/27 11:55:21;;;;;;;4.78;2.90;;;18.90;1.00;;;;;;5049791;28;20497;-83
2023/04/27 11:57:47;;;;;;;5.97;3.15;;;19.00;1.00;;;;;;5057169;28;20048;-83
2023/04/27 12:00:13;;;;;;;4.50;2.70;;;19.40;1.00;;;;;;5073665;28;20143;-84
2023/04/27 12:02:41;;;;;;;6.35;3.20;;;19.50;1.00;;;;;;5057401;28;20526;-85
2023/04/27 12:05:08;;;;;;;5.20;2.90;;;19.10;1.00;;;;;;5056290;28;20504;-83
2023/04/27 12:07:34;;;;;;;6.60;2.90;;;18.60;1.00;;;;;;5056304;28;20514;-82
2023/04/27 12:10:00;;;;;;;6.03;2.92;;;18.20;1.00;;;;;;5056695;28;20401;-83
2023/04/27 12:12:26;;;;;;;4.47;2.90;;;17.60;1.00;;;;;;5073687;28;20044;-83
2023/04/27 12:14:52;;;;;;;7.15;3.25;;;17.10;1.00;;;;;;5055952;28;20044;-82
2023/04/27 12:17:18;;;;;;;6.80;3.65;;;17.40;1.00;;;;;;5072930;28;20055;-84
2023/04/27 12:19:44;;;;;;;3.97;2.97;;;18.10;1.00;;;;;;5056590;28;20036;-84
2023/04/27 12:22:10;;;;;;;7.35;3.30;;;18.30;1.00;;;;;;5056705;28;20044;-85
2023/04/27 12:24:36;;;;;;;6.25;3.25;;;18.00;1.00;;;;;;5058646;28;20093;-82
2023/04/27 12:27:03;;;;;;;6.63;2.78;;;17.90;1.00;;;;;;5057086;28;20052;-83
2023/04/27 12:29:30;;;;;;;7.13;3.13;;;17.60;1.00;;;;;;5063791;28;20051;-82
2023/04/27 12:31:58;;;;;;;4.10;2.80;;;17.20;1.00;;;;;;5068229;28;20469;-82
2023/04/27 12:34:23;;;;;;;9.10;4.53;;;16.70;1.00;;;;;;5069741;28;20075;-82
2023/04/27 12:36:49;;;;;;;4.82;3.33;;;16.60;1.00;;;;;;5058502;28;20080;-84
2023/04/27 12:39:25;;;;;;;5.82;3.15;;;16.70;1.00;;;;;;5065752;28;20043;-83
2023/04/27 12:41:52;;;;;;;5.68;3.17;;;17.10;1.00;;;;;;5044170;28;20222;-82
2023/04/27 12:44:20;;;;;;;6.50;2.55;;;18.10;1.00;;;;;;5058387;28;20048;-83
2023/04/27 12:46:49;;;;;;;4.85;2.72;;;18.70;1.00;;;;;;5059798;28;20044;-83
2023/04/27 12:49:15;;;;;;;4.45;3.30;;;18.70;1.00;;;;;;5075444;28;20047;-88
2023/04/27 12:51:41;;;;;;;5.30;2.80;;;18.40;1.00;;;;;;5058548;28;20048;-83
2023/04/27 12:54:09;;;;;;;7.97;3.13;;;18.00;1.00;;;;;;5079577;28;20051;-83
2023/04/27 12:56:35;;;;;;;5.10;3.10;;;17.50;1.00;;;;;;5074979;28;20493;-86
2023/04/27 12:59:01;;;;;;;5.05;3.67;;;17.20;1.00;;;;;;5059595;28;20059;-82
2023/04/27 13:01:27;;;;;;;6.03;3.13;;;16.90;1.00;;;;;;5059387;28;20062;-83
2023/04/27 13:03:54;;;;;;;4.65;3.30;;;16.70;1.00;;;;;;5063401;28;20040;-82
2023/04/27 13:06:21;;;;;;;6.85;3.00;;;16.60;1.00;;;;;;5042020;28;20052;-82
2023/04/27 13:08:50;;;;;;;5.80;2.95;;;16.60;1.00;;;;;;5059749;28;20048;-82
2023/04/27 13:11:16;;;;;;;4.35;3.53;;;16.60;1.00;;;;;;5057340;28;20044;-87
2023/04/27 13:13:43;;;;;;;6.40;3.75;;;16.60;1.00;;;;;;5076222;28;20047;-84
2023/04/27 13:16:10;;;;;;;4.28;2.80;;;16.40;1.00;;;;;;5043101;28;20058;-85
2023/04/27 13:18:36;;;;;;;7.40;3.20;;;16.40;1.00;;;;;;5059033;28;20101;-82
2023/04/27 13:21:04;;;;;;;7.30;4.85;;;16.40;1.00;;;;;;5057102;28;20113;-82
2023/04/27 13:23:30;;;;;;;9.90;3.75;;;16.40;1.00;;;;;;5042754;28;20032;-83
2023/04/27 13:25:56;;;;;;;3.92;3.05;;;16.30;1.00;;;;;;5088349;28;20040;-82
2023/04/27 13:28:22;;;;;;;6.70;3.33;;;16.50;1.00;;;;;;5049252;28;20723;-83
2023/04/27 13:30:48;;;;;;;4.72;3.13;;;16.80;1.00;;;;;;5064883;28;20036;-82
2023/04/27 13:33:14;;;;;;;5.15;3.00;;;17.10;1.00;;;;;;5073254;28;20135;-83